createdAt,value
2022-09-09T00:00:07.720Z,492.00
2022-09-09T00:00:37.727Z,491.00
2022-09-09T00:01:07.718Z,493.00
2022-09-09T00:01:37.835Z,493.00
2022-09-09T00:02:07.958Z,496.00
2022-09-09T00:02:38.008Z,497.00
2022-09-09T00:03:08.127Z,498.00
2022-09-09T00:03:38.039Z,498.00
2022-09-09T00:04:08.024Z,500.00
2022-09-09T00:04:38.150Z,500.00
2022-09-09T00:05:08.139Z,499.00
2022-09-09T00:05:38.149Z,498.00
2022-09-09T00:06:08.140Z,497.00
2022-09-09T00:06:38.140Z,497.00
2022-09-09T00:07:08.128Z,497.00
2022-09-09T00:07:38.257Z,498.00
2022-09-09T00:08:08.245Z,497.00
2022-09-09T00:08:38.243Z,497.00
2022-09-09T00:09:08.238Z,497.00
2022-09-09T00:09:38.353Z,498.00
2022-09-09T00:10:08.353Z,497.00
2022-09-09T00:10:38.348Z,496.00
2022-09-09T00:11:08.460Z,495.00
2022-09-09T00:11:38.458Z,497.00
2022-09-09T00:12:08.453Z,495.00
2022-09-09T00:12:38.566Z,494.00
2022-09-09T00:13:08.682Z,495.00
2022-09-09T00:13:38.807Z,495.00
2022-09-09T00:14:08.797Z,496.00
2022-09-09T00:14:38.915Z,496.00
2022-09-09T00:15:09.058Z,496.00
2022-09-09T00:15:39.197Z,495.00
2022-09-09T00:16:09.252Z,496.00
2022-09-09T00:16:39.260Z,496.00
2022-09-09T00:17:09.383Z,496.00
2022-09-09T00:17:39.494Z,495.00
2022-09-09T00:18:09.488Z,496.00
2022-09-09T00:18:39.489Z,496.00
2022-09-09T00:19:09.608Z,492.00
2022-09-09T00:19:39.724Z,491.00
2022-09-09T00:20:09.721Z,491.00
2022-09-09T00:20:39.845Z,490.00
2022-09-09T00:21:09.842Z,489.00
2022-09-09T00:21:39.964Z,491.00
2022-09-09T00:22:09.955Z,492.00
2022-09-09T00:22:40.071Z,494.00
2022-09-09T00:23:10.066Z,496.00
2022-09-09T00:23:40.225Z,495.00
2022-09-09T00:24:10.197Z,495.00
2022-09-09T00:24:40.317Z,496.00
2022-09-09T00:25:10.309Z,496.00
2022-09-09T00:25:40.436Z,497.00
2022-09-09T00:26:10.433Z,497.00
2022-09-09T00:26:40.426Z,495.00
2022-09-09T00:27:10.542Z,494.00
2022-09-09T00:27:40.660Z,492.00
2022-09-09T00:28:10.653Z,492.00
2022-09-09T00:28:40.774Z,492.00
2022-09-09T00:29:10.772Z,493.00
2022-09-09T00:29:40.767Z,493.00
2022-09-09T00:30:10.757Z,494.00
2022-09-09T00:30:40.952Z,493.00
2022-09-09T00:31:11.104Z,493.00
2022-09-09T00:31:40.987Z,493.00
2022-09-09T00:32:11.102Z,492.00
2022-09-09T00:32:41.097Z,495.00
2022-09-09T00:33:13.912Z,494.00
2022-09-09T00:33:41.216Z,494.00
2022-09-09T00:34:11.210Z,494.00
2022-09-09T00:34:41.330Z,492.00
2022-09-09T00:35:11.448Z,495.00
2022-09-09T00:35:41.568Z,494.00
2022-09-09T00:36:11.560Z,495.00
2022-09-09T00:36:41.676Z,496.00
2022-09-09T00:37:11.777Z,498.00
2022-09-09T00:37:41.864Z,497.00
2022-09-09T00:38:11.938Z,497.00
2022-09-09T00:38:42.027Z,496.00
2022-09-09T00:39:12.116Z,495.00
2022-09-09T00:39:42.243Z,495.00
2022-09-09T00:40:12.252Z,494.00
2022-09-09T00:40:42.309Z,494.00
2022-09-09T00:41:12.390Z,492.00
2022-09-09T00:41:42.467Z,492.00
2022-09-09T00:42:12.547Z,490.00
2022-09-09T00:42:42.629Z,490.00
2022-09-09T00:43:12.726Z,491.00
2022-09-09T00:43:42.809Z,493.00
2022-09-09T00:44:12.888Z,493.00
2022-09-09T00:44:42.972Z,493.00
2022-09-09T00:45:13.063Z,493.00
2022-09-09T00:45:43.319Z,494.00
2022-09-09T00:46:13.354Z,494.00
2022-09-09T00:46:43.325Z,493.00
2022-09-09T00:47:13.418Z,492.00
2022-09-09T00:47:43.425Z,493.00
2022-09-09T00:48:13.417Z,493.00
2022-09-09T00:48:43.532Z,494.00
2022-09-09T00:49:13.528Z,493.00
2022-09-09T00:49:43.643Z,493.00
2022-09-09T00:50:13.756Z,492.00
2022-09-09T00:50:43.888Z,491.00
2022-09-09T00:51:13.887Z,491.00
2022-09-09T00:51:44.003Z,491.00
2022-09-09T00:52:14.122Z,491.00
2022-09-09T00:52:44.242Z,489.00
2022-09-09T00:53:14.359Z,490.00
2022-09-09T00:53:44.472Z,491.00
2022-09-09T00:54:14.465Z,490.00
2022-09-09T00:54:44.584Z,491.00
2022-09-09T00:55:14.699Z,491.00
2022-09-09T00:55:44.715Z,491.00
2022-09-09T00:56:14.706Z,491.00
2022-09-09T00:56:44.819Z,491.00
2022-09-09T00:57:14.938Z,490.00
2022-09-09T00:57:45.060Z,490.00
2022-09-09T00:58:15.176Z,488.00
2022-09-09T00:58:45.294Z,489.00
2022-09-09T00:59:15.412Z,490.00
2022-09-09T00:59:45.407Z,490.00
2022-09-09T01:00:15.533Z,490.00
2022-09-09T01:00:45.641Z,488.00
2022-09-09T01:01:15.693Z,488.00
2022-09-09T01:01:45.807Z,488.00
2022-09-09T01:02:15.847Z,488.00
2022-09-09T01:02:45.815Z,490.00
2022-09-09T01:03:15.784Z,489.00
2022-09-09T01:03:45.902Z,488.00
2022-09-09T01:04:16.021Z,489.00
2022-09-09T01:04:46.013Z,491.00
2022-09-09T01:05:16.134Z,489.00
2022-09-09T01:05:46.125Z,487.00
2022-09-09T01:06:16.247Z,487.00
2022-09-09T01:06:46.239Z,485.00
2022-09-09T01:07:16.236Z,485.00
2022-09-09T01:07:46.359Z,483.00
2022-09-09T01:08:16.351Z,481.00
2022-09-09T01:08:46.346Z,483.00
2022-09-09T01:09:16.465Z,484.00
2022-09-09T01:09:46.583Z,485.00
2022-09-09T01:10:16.578Z,485.00
2022-09-09T01:10:46.696Z,486.00
2022-09-09T01:11:16.817Z,488.00
2022-09-09T01:11:46.820Z,488.00
2022-09-09T01:12:16.820Z,490.00
2022-09-09T01:12:46.937Z,491.00
2022-09-09T01:13:16.931Z,492.00
2022-09-09T01:13:47.047Z,491.00
2022-09-09T01:14:17.169Z,490.00
2022-09-09T01:14:47.167Z,491.00
2022-09-09T01:15:17.162Z,494.00
2022-09-09T01:15:47.301Z,492.00
2022-09-09T01:16:17.322Z,492.00
2022-09-09T01:16:47.425Z,492.00
2022-09-09T01:17:17.343Z,492.00
2022-09-09T01:17:47.314Z,493.00
2022-09-09T01:18:17.313Z,492.00
2022-09-09T01:18:47.426Z,492.00
2022-09-09T01:19:17.546Z,490.00
2022-09-09T01:19:47.665Z,491.00
2022-09-09T01:20:17.663Z,491.00
2022-09-09T01:20:47.773Z,490.00
2022-09-09T01:21:17.894Z,490.00
2022-09-09T01:21:48.015Z,490.00
2022-09-09T01:22:18.132Z,490.00
2022-09-09T01:22:48.256Z,491.00
2022-09-09T01:23:18.249Z,492.00
2022-09-09T01:23:48.368Z,494.00
2022-09-09T01:24:18.486Z,492.00
2022-09-09T01:24:48.477Z,493.00
2022-09-09T01:25:18.595Z,493.00
2022-09-09T01:25:48.711Z,494.00
2022-09-09T01:26:18.828Z,494.00
2022-09-09T01:26:48.821Z,496.00
2022-09-09T01:27:18.935Z,497.00
2022-09-09T01:27:49.052Z,495.00
2022-09-09T01:28:19.045Z,495.00
2022-09-09T01:28:49.163Z,495.00
2022-09-09T01:29:19.277Z,494.00
2022-09-09T01:29:49.271Z,495.00
2022-09-09T01:30:19.391Z,495.00
2022-09-09T01:30:49.564Z,492.00
2022-09-09T01:31:19.576Z,492.00
2022-09-09T01:31:49.559Z,491.00
2022-09-09T01:32:19.699Z,493.00
2022-09-09T01:32:49.794Z,492.00
2022-09-09T01:33:19.793Z,490.00
2022-09-09T01:33:49.793Z,491.00
2022-09-09T01:34:19.899Z,488.00
2022-09-09T01:34:50.024Z,487.00
2022-09-09T01:35:20.139Z,485.00
2022-09-09T01:35:50.264Z,486.00
2022-09-09T01:36:20.259Z,485.00
2022-09-09T01:36:50.249Z,485.00
2022-09-09T01:37:20.340Z,484.00
2022-09-09T01:37:50.425Z,486.00
2022-09-09T01:38:20.519Z,485.00
2022-09-09T01:38:50.587Z,487.00
2022-09-09T01:39:20.665Z,487.00
2022-09-09T01:39:50.838Z,486.00
2022-09-09T01:40:20.863Z,488.00
2022-09-09T01:40:50.780Z,490.00
2022-09-09T01:41:20.868Z,489.00
2022-09-09T01:41:50.953Z,491.00
2022-09-09T01:42:21.030Z,491.00
2022-09-09T01:42:51.117Z,490.00
2022-09-09T01:43:21.196Z,491.00
2022-09-09T01:43:51.270Z,491.00
2022-09-09T01:44:21.355Z,492.00
2022-09-09T01:44:51.435Z,491.00
2022-09-09T01:45:21.515Z,490.00
2022-09-09T01:45:51.613Z,489.00
2022-09-09T01:46:21.746Z,487.00
2022-09-09T01:46:51.702Z,486.00
2022-09-09T01:47:21.817Z,484.00
2022-09-09T01:47:51.844Z,484.00
2022-09-09T01:48:21.930Z,484.00
2022-09-09T01:48:52.048Z,485.00
2022-09-09T01:49:22.044Z,486.00
2022-09-09T01:49:52.157Z,486.00
2022-09-09T01:50:22.279Z,485.00
2022-09-09T01:50:52.270Z,485.00
2022-09-09T01:51:22.395Z,484.00
2022-09-09T01:51:52.391Z,483.00
2022-09-09T01:52:22.504Z,484.00
2022-09-09T01:52:52.499Z,485.00
2022-09-09T01:53:22.644Z,484.00
2022-09-09T01:53:52.641Z,486.00
2022-09-09T01:54:22.635Z,488.00
2022-09-09T01:54:52.633Z,488.00
2022-09-09T01:55:22.747Z,488.00
2022-09-09T01:55:52.738Z,488.00
2022-09-09T01:56:22.871Z,488.00
2022-09-09T01:56:52.858Z,488.00
2022-09-09T01:57:22.860Z,488.00
2022-09-09T01:57:52.854Z,487.00
2022-09-09T01:58:22.973Z,487.00
2022-09-09T01:58:52.966Z,486.00
2022-09-09T01:59:23.086Z,486.00
2022-09-09T01:59:53.204Z,486.00
2022-09-09T02:00:23.204Z,486.00
2022-09-09T02:00:53.247Z,486.00
2022-09-09T02:01:23.308Z,487.00
2022-09-09T02:01:53.480Z,487.00
2022-09-09T02:02:23.451Z,486.00
2022-09-09T02:02:53.450Z,484.00
2022-09-09T02:03:23.531Z,484.00
2022-09-09T02:03:53.524Z,484.00
2022-09-09T02:04:23.649Z,484.00
2022-09-09T02:04:53.760Z,484.00
2022-09-09T02:05:23.881Z,484.00
2022-09-09T02:05:54.010Z,486.00
2022-09-09T02:06:24.119Z,486.00
2022-09-09T02:06:54.113Z,487.00
2022-09-09T02:07:24.125Z,487.00
2022-09-09T02:07:54.117Z,487.00
2022-09-09T02:08:24.235Z,488.00
2022-09-09T02:08:54.228Z,489.00
2022-09-09T02:09:24.349Z,490.00
2022-09-09T02:09:54.466Z,488.00
2022-09-09T02:10:24.592Z,488.00
2022-09-09T02:10:54.701Z,488.00
2022-09-09T02:11:24.821Z,488.00
2022-09-09T02:11:54.933Z,491.00
2022-09-09T02:12:25.062Z,490.00
2022-09-09T02:12:55.055Z,488.00
2022-09-09T02:13:25.166Z,486.00
2022-09-09T02:13:55.283Z,485.00
2022-09-09T02:14:25.287Z,485.00
2022-09-09T02:14:55.275Z,487.00
2022-09-09T02:15:25.270Z,487.00
2022-09-09T02:15:55.262Z,488.00
2022-09-09T02:16:25.465Z,487.00
2022-09-09T02:16:55.591Z,489.00
2022-09-09T02:17:25.470Z,491.00
2022-09-09T02:17:55.485Z,492.00
2022-09-09T02:18:25.575Z,492.00
2022-09-09T02:18:55.692Z,491.00
2022-09-09T02:19:25.693Z,491.00
2022-09-09T02:19:55.806Z,492.00
2022-09-09T02:20:25.808Z,492.00
2022-09-09T02:20:55.798Z,491.00
2022-09-09T02:21:25.918Z,490.00
2022-09-09T02:21:55.919Z,490.00
2022-09-09T02:22:25.911Z,490.00
2022-09-09T02:22:56.108Z,490.00
2022-09-09T02:23:26.106Z,488.00
2022-09-09T02:23:56.092Z,487.00
2022-09-09T02:24:26.206Z,487.00
2022-09-09T02:24:56.319Z,487.00
2022-09-09T02:25:26.440Z,486.00
2022-09-09T02:25:56.431Z,487.00
2022-09-09T02:26:26.545Z,488.00
2022-09-09T02:26:56.545Z,488.00
2022-09-09T02:27:26.541Z,487.00
2022-09-09T02:27:56.536Z,485.00
2022-09-09T02:28:26.552Z,486.00
2022-09-09T02:28:56.538Z,488.00
2022-09-09T02:29:26.658Z,490.00
2022-09-09T02:29:56.771Z,490.00
2022-09-09T02:30:26.959Z,489.00
2022-09-09T02:30:57.001Z,489.00
2022-09-09T02:31:27.024Z,490.00
2022-09-09T02:31:57.048Z,490.00
2022-09-09T02:32:27.038Z,490.00
2022-09-09T02:32:57.161Z,489.00
2022-09-09T02:33:27.302Z,488.00
2022-09-09T02:33:57.401Z,488.00
2022-09-09T02:34:27.515Z,488.00
2022-09-09T02:34:57.511Z,488.00
2022-09-09T02:35:27.510Z,488.00
2022-09-09T02:35:57.645Z,488.00
2022-09-09T02:36:27.631Z,488.00
2022-09-09T02:36:57.676Z,486.00
2022-09-09T02:37:27.625Z,485.00
2022-09-09T02:37:57.705Z,486.00
2022-09-09T02:38:27.786Z,487.00
2022-09-09T02:38:57.866Z,487.00
2022-09-09T02:39:27.946Z,488.00
2022-09-09T02:39:58.076Z,489.00
2022-09-09T02:40:28.058Z,489.00
2022-09-09T02:40:58.130Z,488.00
2022-09-09T02:41:28.215Z,487.00
2022-09-09T02:41:58.300Z,489.00
2022-09-09T02:42:28.385Z,488.00
2022-09-09T02:42:58.468Z,489.00
2022-09-09T02:43:28.547Z,488.00
2022-09-09T02:43:58.631Z,489.00
2022-09-09T02:44:28.705Z,489.00
2022-09-09T02:44:58.789Z,492.00
2022-09-09T02:45:28.912Z,492.00
2022-09-09T02:45:59.052Z,491.00
2022-09-09T02:46:29.045Z,491.00
2022-09-09T02:46:59.002Z,488.00
2022-09-09T02:47:29.123Z,486.00
2022-09-09T02:47:59.236Z,486.00
2022-09-09T02:48:29.455Z,487.00
2022-09-09T02:48:59.474Z,488.00
2022-09-09T02:49:29.572Z,489.00
2022-09-09T02:49:59.691Z,489.00
2022-09-09T02:50:29.809Z,488.00
2022-09-09T02:50:59.806Z,490.00
2022-09-09T02:51:29.927Z,489.00
2022-09-09T02:51:59.921Z,490.00
2022-09-09T02:52:30.035Z,492.00
2022-09-09T02:53:00.047Z,492.00
2022-09-09T02:53:30.156Z,491.00
2022-09-09T02:54:00.274Z,490.00
2022-09-09T02:54:30.397Z,490.00
2022-09-09T02:55:00.389Z,490.00
2022-09-09T02:55:30.506Z,491.00
2022-09-09T02:56:00.626Z,490.00
2022-09-09T02:56:30.623Z,491.00
2022-09-09T02:57:00.625Z,493.00
2022-09-09T02:57:30.625Z,492.00
2022-09-09T02:58:00.621Z,491.00
2022-09-09T02:58:30.619Z,491.00
2022-09-09T02:59:00.617Z,492.00
2022-09-09T02:59:30.736Z,490.00
2022-09-09T03:00:00.729Z,489.00
2022-09-09T03:00:30.729Z,488.00
2022-09-09T03:01:00.801Z,488.00
2022-09-09T03:01:30.842Z,489.00
2022-09-09T03:02:00.945Z,489.00
2022-09-09T03:02:30.838Z,489.00
2022-09-09T03:03:00.931Z,489.00
2022-09-09T03:03:30.939Z,489.00
2022-09-09T03:04:00.936Z,489.00
2022-09-09T03:04:30.957Z,489.00
2022-09-09T03:05:01.048Z,490.00
2022-09-09T03:05:31.041Z,491.00
2022-09-09T03:06:01.157Z,489.00
2022-09-09T03:06:31.160Z,488.00
2022-09-09T03:07:01.292Z,486.00
2022-09-09T03:07:31.282Z,488.00
2022-09-09T03:08:01.281Z,486.00
2022-09-09T03:08:31.401Z,486.00
2022-09-09T03:09:01.515Z,486.00
2022-09-09T03:09:31.513Z,485.00
2022-09-09T03:10:01.635Z,484.00
2022-09-09T03:10:31.746Z,486.00
2022-09-09T03:11:01.744Z,485.00
2022-09-09T03:11:31.863Z,486.00
2022-09-09T03:12:01.989Z,486.00
2022-09-09T03:12:31.988Z,484.00
2022-09-09T03:13:02.112Z,483.00
2022-09-09T03:13:32.222Z,484.00
2022-09-09T03:14:02.226Z,485.00
2022-09-09T03:14:32.228Z,485.00
2022-09-09T03:15:02.219Z,486.00
2022-09-09T03:15:32.216Z,487.00
2022-09-09T03:16:02.338Z,489.00
2022-09-09T03:16:32.515Z,490.00
2022-09-09T03:17:02.491Z,489.00
2022-09-09T03:17:32.495Z,489.00
2022-09-09T03:18:02.611Z,489.00
2022-09-09T03:18:32.694Z,491.00
2022-09-09T03:19:02.694Z,491.00
2022-09-09T03:19:32.691Z,491.00
2022-09-09T03:20:02.831Z,491.00
2022-09-09T03:20:32.810Z,491.00
2022-09-09T03:21:02.925Z,490.00
2022-09-09T03:21:32.916Z,490.00
2022-09-09T03:22:02.921Z,489.00
2022-09-09T03:22:32.910Z,487.00
2022-09-09T03:23:02.916Z,486.00
2022-09-09T03:23:33.035Z,486.00
2022-09-09T03:24:03.030Z,486.00
2022-09-09T03:24:33.024Z,487.00
2022-09-09T03:25:03.024Z,489.00
2022-09-09T03:25:33.140Z,490.00
2022-09-09T03:26:03.141Z,489.00
2022-09-09T03:26:33.137Z,488.00
2022-09-09T03:27:03.261Z,488.00
2022-09-09T03:27:33.369Z,490.00
2022-09-09T03:28:03.373Z,490.00
2022-09-09T03:28:33.455Z,490.00
2022-09-09T03:29:03.450Z,491.00
2022-09-09T03:29:33.450Z,491.00
2022-09-09T03:30:03.449Z,491.00
2022-09-09T03:30:33.560Z,489.00
2022-09-09T03:31:03.558Z,489.00
2022-09-09T03:31:33.585Z,486.00
2022-09-09T03:32:03.665Z,486.00
2022-09-09T03:32:33.700Z,486.00
2022-09-09T03:33:03.692Z,484.00
2022-09-09T03:33:33.804Z,485.00
2022-09-09T03:34:03.926Z,485.00
2022-09-09T03:34:33.922Z,485.00
2022-09-09T03:35:04.039Z,485.00
2022-09-09T03:35:34.181Z,486.00
2022-09-09T03:36:04.148Z,486.00
2022-09-09T03:36:34.267Z,486.00
2022-09-09T03:37:04.377Z,488.00
2022-09-09T03:37:34.467Z,487.00
2022-09-09T03:38:04.543Z,488.00
2022-09-09T03:38:34.780Z,487.00
2022-09-09T03:39:04.751Z,486.00
2022-09-09T03:39:34.849Z,486.00
2022-09-09T03:40:04.985Z,485.00
2022-09-09T03:40:34.930Z,485.00
2022-09-09T03:41:05.014Z,486.00
2022-09-09T03:41:35.103Z,486.00
2022-09-09T03:42:05.176Z,487.00
2022-09-09T03:42:35.260Z,486.00
2022-09-09T03:43:05.350Z,487.00
2022-09-09T03:43:35.423Z,485.00
2022-09-09T03:44:05.509Z,487.00
2022-09-09T03:44:35.583Z,488.00
2022-09-09T03:45:05.679Z,487.00
2022-09-09T03:45:35.845Z,488.00
2022-09-09T03:46:05.974Z,490.00
2022-09-09T03:46:35.798Z,489.00
2022-09-09T03:47:05.896Z,486.00
2022-09-09T03:47:35.892Z,486.00
2022-09-09T03:48:06.015Z,485.00
2022-09-09T03:48:36.219Z,485.00
2022-09-09T03:49:06.184Z,484.00
2022-09-09T03:49:36.174Z,484.00
2022-09-09T03:50:06.303Z,484.00
2022-09-09T03:50:36.413Z,484.00
2022-09-09T03:51:06.432Z,484.00
2022-09-09T03:51:36.528Z,485.00
2022-09-09T03:52:06.642Z,486.00
2022-09-09T03:52:36.643Z,487.00
2022-09-09T03:53:06.652Z,486.00
2022-09-09T03:53:36.756Z,486.00
2022-09-09T03:54:06.754Z,484.00
2022-09-09T03:54:36.746Z,483.00
2022-09-09T03:55:06.866Z,483.00
2022-09-09T03:55:36.859Z,481.00
2022-09-09T03:56:06.860Z,481.00
2022-09-09T03:56:36.970Z,481.00
2022-09-09T03:57:07.113Z,480.00
2022-09-09T03:57:37.128Z,481.00
2022-09-09T03:58:07.244Z,481.00
2022-09-09T03:58:37.444Z,483.00
2022-09-09T03:59:07.249Z,485.00
2022-09-09T03:59:37.358Z,486.00
2022-09-09T04:00:07.356Z,486.00
2022-09-09T04:00:37.518Z,485.00
2022-09-09T04:01:07.463Z,485.00
2022-09-09T04:01:37.457Z,484.00
2022-09-09T04:02:07.626Z,483.00
2022-09-09T04:02:37.705Z,484.00
2022-09-09T04:03:07.718Z,484.00
2022-09-09T04:03:37.708Z,484.00
2022-09-09T04:04:07.833Z,482.00
2022-09-09T04:04:37.822Z,482.00
2022-09-09T04:05:07.819Z,483.00
2022-09-09T04:05:37.934Z,485.00
2022-09-09T04:06:08.051Z,484.00
2022-09-09T04:06:38.069Z,485.00
2022-09-09T04:07:08.080Z,485.00
2022-09-09T04:07:38.074Z,485.00
2022-09-09T04:08:08.070Z,484.00
2022-09-09T04:08:38.189Z,484.00
2022-09-09T04:09:08.177Z,483.00
2022-09-09T04:09:38.291Z,483.00
2022-09-09T04:10:08.300Z,483.00
2022-09-09T04:10:38.408Z,482.00
2022-09-09T04:11:08.543Z,482.00
2022-09-09T04:11:38.517Z,482.00
2022-09-09T04:12:08.650Z,482.00
2022-09-09T04:12:38.638Z,482.00
2022-09-09T04:13:08.640Z,480.00
2022-09-09T04:13:38.767Z,482.00
2022-09-09T04:14:08.879Z,483.00
2022-09-09T04:14:38.877Z,483.00
2022-09-09T04:15:08.873Z,484.00
2022-09-09T04:15:38.985Z,483.00
2022-09-09T04:16:09.047Z,483.00
2022-09-09T04:16:39.085Z,485.00
2022-09-09T04:17:09.115Z,484.00
2022-09-09T04:17:39.115Z,483.00
2022-09-09T04:18:09.113Z,483.00
2022-09-09T04:18:39.226Z,483.00
2022-09-09T04:19:09.222Z,482.00
2022-09-09T04:19:39.222Z,480.00
2022-09-09T04:20:09.215Z,480.00
2022-09-09T04:20:39.219Z,480.00
2022-09-09T04:21:09.337Z,479.00
2022-09-09T04:21:39.460Z,480.00
2022-09-09T04:22:09.498Z,480.00
2022-09-09T04:22:39.470Z,482.00
2022-09-09T04:23:09.584Z,483.00
2022-09-09T04:23:39.578Z,483.00
2022-09-09T04:24:09.699Z,482.00
2022-09-09T04:24:39.815Z,482.00
2022-09-09T04:25:09.816Z,483.00
2022-09-09T04:25:39.805Z,483.00
2022-09-09T04:26:09.947Z,484.00
2022-09-09T04:26:39.934Z,484.00
2022-09-09T04:27:09.934Z,484.00
2022-09-09T04:27:39.925Z,486.00
2022-09-09T04:28:10.046Z,485.00
2022-09-09T04:28:40.039Z,485.00
2022-09-09T04:29:10.155Z,484.00
2022-09-09T04:29:40.273Z,485.00
2022-09-09T04:30:10.393Z,486.00
2022-09-09T04:30:40.394Z,485.00
2022-09-09T04:31:10.653Z,486.00
2022-09-09T04:31:40.572Z,486.00
2022-09-09T04:32:10.597Z,487.00
2022-09-09T04:32:40.739Z,486.00
2022-09-09T04:33:10.795Z,486.00
2022-09-09T04:33:40.833Z,487.00
2022-09-09T04:34:10.885Z,486.00
2022-09-09T04:34:40.917Z,486.00
2022-09-09T04:35:11.037Z,486.00
2022-09-09T04:35:41.153Z,485.00
2022-09-09T04:36:11.291Z,486.00
2022-09-09T04:36:41.298Z,486.00
2022-09-09T04:37:11.419Z,487.00
2022-09-09T04:37:41.464Z,486.00
2022-09-09T04:38:11.545Z,487.00
2022-09-09T04:38:41.628Z,486.00
2022-09-09T04:39:11.701Z,486.00
2022-09-09T04:39:41.841Z,487.00
2022-09-09T04:40:11.983Z,485.00
2022-09-09T04:40:41.950Z,486.00
2022-09-09T04:41:12.027Z,486.00
2022-09-09T04:41:42.106Z,487.00
2022-09-09T04:42:12.201Z,487.00
2022-09-09T04:42:42.284Z,487.00
2022-09-09T04:43:14.502Z,485.00
2022-09-09T04:43:42.418Z,484.00
2022-09-09T04:44:12.496Z,483.00
2022-09-09T04:44:42.574Z,483.00
2022-09-09T04:45:12.655Z,482.00
2022-09-09T04:45:42.793Z,483.00
2022-09-09T04:46:12.818Z,485.00
2022-09-09T04:46:42.744Z,486.00
2022-09-09T04:47:12.851Z,486.00
2022-09-09T04:47:42.843Z,487.00
2022-09-09T04:48:12.841Z,489.00
2022-09-09T04:48:42.965Z,489.00
2022-09-09T04:49:15.212Z,490.00
2022-09-09T04:49:42.996Z,492.00
2022-09-09T04:50:13.120Z,493.00
2022-09-09T04:50:43.231Z,493.00
2022-09-09T04:51:13.227Z,495.00
2022-09-09T04:51:43.221Z,497.00
2022-09-09T04:52:13.347Z,496.00
2022-09-09T04:52:43.361Z,497.00
2022-09-09T04:53:13.336Z,497.00
2022-09-09T04:53:43.339Z,497.00
2022-09-09T04:54:13.329Z,497.00
2022-09-09T04:54:43.325Z,499.00
2022-09-09T04:55:13.442Z,500.00
2022-09-09T04:55:43.558Z,501.00
2022-09-09T04:56:13.677Z,502.00
2022-09-09T04:56:43.791Z,502.00
2022-09-09T04:57:18.067Z,503.00
2022-09-09T04:57:43.993Z,502.00
2022-09-09T04:58:14.110Z,502.00
2022-09-09T04:58:44.167Z,503.00
2022-09-09T04:59:14.152Z,502.00
2022-09-09T04:59:44.159Z,503.00
2022-09-09T05:00:14.169Z,502.00
2022-09-09T05:00:44.192Z,506.00
2022-09-09T05:01:14.307Z,506.00
2022-09-09T05:01:44.286Z,506.00
2022-09-09T05:02:14.466Z,505.00
2022-09-09T05:02:44.406Z,506.00
2022-09-09T05:03:14.393Z,508.00
2022-09-09T05:03:44.397Z,509.00
2022-09-09T05:04:14.510Z,509.00
2022-09-09T05:04:44.502Z,509.00
2022-09-09T05:05:14.621Z,508.00
2022-09-09T05:05:44.746Z,515.00
2022-09-09T05:06:14.737Z,513.00
2022-09-09T05:06:44.733Z,511.00
2022-09-09T05:07:14.871Z,510.00
2022-09-09T05:07:44.864Z,518.00
2022-09-09T05:08:14.885Z,515.00
2022-09-09T05:08:44.988Z,513.00
2022-09-09T05:09:15.104Z,514.00
2022-09-09T05:09:45.221Z,516.00
2022-09-09T05:10:15.344Z,516.00
2022-09-09T05:10:45.337Z,512.00
2022-09-09T05:11:15.335Z,511.00
2022-09-09T05:11:45.448Z,507.00
2022-09-09T05:12:15.569Z,504.00
2022-09-09T05:12:45.571Z,502.00
2022-09-09T05:13:15.565Z,503.00
2022-09-09T05:13:45.566Z,501.00
2022-09-09T05:14:15.695Z,498.00
2022-09-09T05:14:45.810Z,498.00
2022-09-09T05:15:15.940Z,496.00
2022-09-09T05:15:45.909Z,494.00
2022-09-09T05:16:16.105Z,500.00
2022-09-09T05:16:46.181Z,497.00
2022-09-09T05:17:16.086Z,496.00
2022-09-09T05:17:46.092Z,500.00
2022-09-09T05:18:16.203Z,492.00
2022-09-09T05:18:46.195Z,495.00
2022-09-09T05:19:16.193Z,494.00
2022-09-09T05:19:46.312Z,487.00
2022-09-09T05:20:17.582Z,499.00
2022-09-09T05:20:46.483Z,491.00
2022-09-09T05:21:16.478Z,488.00
2022-09-09T05:21:46.600Z,483.00
2022-09-09T05:22:16.714Z,481.00
2022-09-09T05:22:46.724Z,479.00
2022-09-09T05:23:16.738Z,479.00
2022-09-09T05:23:46.831Z,477.00
2022-09-09T05:24:16.830Z,481.00
2022-09-09T05:24:46.955Z,484.00
2022-09-09T05:25:16.943Z,486.00
2022-09-09T05:25:47.072Z,485.00
2022-09-09T05:26:17.882Z,485.00
2022-09-09T05:26:47.125Z,484.00
2022-09-09T05:27:17.117Z,484.00
2022-09-09T05:27:47.249Z,483.00
2022-09-09T05:28:17.362Z,482.00
2022-09-09T05:28:47.358Z,482.00
2022-09-09T05:29:17.471Z,482.00
2022-09-09T05:29:47.593Z,482.00
2022-09-09T05:30:17.584Z,482.00
2022-09-09T05:30:47.700Z,483.00
2022-09-09T05:31:17.764Z,483.00
2022-09-09T05:31:47.728Z,484.00
2022-09-09T05:32:17.690Z,485.00
2022-09-09T05:32:47.695Z,484.00
2022-09-09T05:33:17.688Z,484.00
2022-09-09T05:33:47.679Z,515.00
2022-09-09T05:34:17.798Z,489.00
2022-09-09T05:34:47.794Z,478.00
2022-09-09T05:35:17.791Z,479.00
2022-09-09T05:35:47.798Z,480.00
2022-09-09T05:36:17.800Z,481.00
2022-09-09T05:36:47.919Z,478.00
2022-09-09T05:37:17.913Z,491.00
2022-09-09T05:37:48.036Z,489.00
2022-09-09T05:38:18.032Z,486.00
2022-09-09T05:38:48.051Z,485.00
2022-09-09T05:39:18.022Z,484.00
2022-09-09T05:39:48.210Z,483.00
2022-09-09T05:40:18.284Z,483.00
2022-09-09T05:40:48.274Z,484.00
2022-09-09T05:41:18.294Z,484.00
2022-09-09T05:41:48.263Z,488.00
2022-09-09T05:42:18.259Z,485.00
2022-09-09T05:42:48.262Z,484.00
2022-09-09T05:43:18.259Z,484.00
2022-09-09T05:43:48.374Z,487.00
2022-09-09T05:44:18.365Z,489.00
2022-09-09T05:44:48.393Z,488.00
2022-09-09T05:45:18.392Z,486.00
2022-09-09T05:45:48.385Z,486.00
2022-09-09T05:46:18.427Z,487.00
2022-09-09T05:46:48.496Z,484.00
2022-09-09T05:47:18.411Z,484.00
2022-09-09T05:47:48.471Z,486.00
2022-09-09T05:48:18.489Z,492.00
2022-09-09T05:48:48.532Z,484.00
2022-09-09T05:49:18.581Z,485.00
2022-09-09T05:49:48.659Z,485.00
2022-09-09T05:50:18.703Z,485.00
2022-09-09T05:50:48.731Z,485.00
2022-09-09T05:51:18.761Z,485.00
2022-09-09T05:51:48.805Z,485.00
2022-09-09T05:52:18.842Z,485.00
2022-09-09T05:52:48.896Z,485.00
2022-09-09T05:53:18.933Z,485.00
2022-09-09T05:53:48.967Z,492.00
2022-09-09T05:54:19.025Z,487.00
2022-09-09T05:54:49.029Z,486.00
2022-09-09T05:55:19.072Z,484.00
2022-09-09T05:55:49.103Z,483.00
2022-09-09T05:56:19.132Z,485.00
2022-09-09T05:56:51.718Z,485.00
2022-09-09T05:57:19.167Z,486.00
2022-09-09T05:57:49.228Z,485.00
2022-09-09T05:58:19.289Z,486.00
2022-09-09T05:58:49.337Z,486.00
2022-09-09T05:59:19.383Z,483.00
2022-09-09T05:59:49.421Z,484.00
2022-09-09T06:00:19.459Z,484.00
2022-09-09T06:00:49.498Z,482.00
2022-09-09T06:01:19.541Z,481.00
2022-09-09T06:01:49.697Z,490.00
2022-09-09T06:02:19.888Z,483.00
2022-09-09T06:02:49.778Z,480.00
2022-09-09T06:03:19.809Z,479.00
2022-09-09T06:03:49.713Z,487.00
2022-09-09T06:04:19.747Z,474.00
2022-09-09T06:04:49.789Z,480.00
2022-09-09T06:05:19.821Z,480.00
2022-09-09T06:05:49.853Z,480.00
2022-09-09T06:06:19.892Z,480.00
2022-09-09T06:06:49.924Z,480.00
2022-09-09T06:07:19.960Z,480.00
2022-09-09T06:07:49.999Z,480.00
2022-09-09T06:08:20.024Z,483.00
2022-09-09T06:08:50.064Z,481.00
2022-09-09T06:09:20.158Z,483.00
2022-09-09T06:09:50.201Z,491.00
2022-09-09T06:10:20.231Z,522.00
2022-09-09T06:10:50.280Z,439.00
2022-09-09T06:11:20.334Z,446.00
2022-09-09T06:11:50.380Z,453.00
2022-09-09T06:12:20.406Z,458.00
2022-09-09T06:12:50.447Z,462.00
2022-09-09T06:13:20.479Z,471.00
2022-09-09T06:13:50.505Z,469.00
2022-09-09T06:14:20.548Z,471.00
2022-09-09T06:14:50.575Z,471.00